• Join FlightAware (Why Join?)
  • Login
  • US Flag 
12:37AM EST


 

Airport Tracker/Info


-or-


 

Live Flight TrackerFlight Track Log ✈ AFR356 ✈ 08-Aug-2014 ✈ LFPG / CDG - CYYZ

Flight Track Log - Related Links

Times and Time Zones

All times are in EDT time to prevent confusion due to time zone crossing. See the AFR356 flight status page for this flight to view local times or setup timezone preferences in your user account.

Time Position Orientation Groundspeed Altitude Reporting Facility
EDT Latitude Longitude Course Direction KTS MPH feet Rate Location/Type
08:53AM 49.1421 2.4441 336° Northwest  Level FlightAware Approximate
08:54AM 49.2755 2.3532 335° Northwest  Level FlightAware Approximate
08:54AM 49.0958 2.3409 350° North 295 339 5,700  Level FlightAware ADS-B (LFPO / ORY)
08:55AM 49.4091 2.2634 333° Northwest  Level FlightAware Approximate
08:55AM 49.2132 2.3173 North 324 373 9,000  Level FlightAware ADS-B (LFPO / ORY)
08:57AM 49.3495 2.3275 335° Northwest 346 398 10,400 1,920 Climbing FlightAware UK
08:58AM 49.5458 2.1576 335° Northwest  Level FlightAware Approximate
08:58AM 49.4292 2.3367 357° North 428 493 14,000  Level FlightAware ADS-B (LFPO / ORY)
08:59AM 49.4853 2.3422 North 406 467 12,000 420 Descending FlightAware UK
09:00AM 49.6392 2.3270 357° North 430 495 15,100 2,400 Climbing FlightAware UK
09:01AM 49.7698 2.2840 348° North 450 518 17,900 2,460 Climbing FlightAware UK
09:02AM 49.8435 2.2538 345° North 462 532 19,300 2,280 Climbing FlightAware UK
09:03AM 49.9685 2.1996 344° North 474 545 21,600 2,160 Climbing FlightAware UK
09:03AM 49.9922 2.1896 345° North 480 552 22,100 2,040 Climbing FlightAware ADS-B (EGLF / FAB)
09:04AM 50.1105 2.1381 345° North 490 564 23,900 2,100 Climbing FlightAware UK
09:04AM 50.1240 2.1324 344° North 494 568 24,200 1,980 Climbing FlightAware ADS-B (EGLF / FAB)
09:05AM 50.2371 2.0847 345° North 492 566 25,900 1,980 Climbing FlightAware ADS-B (EGLF / FAB)
09:05AM 50.2529 2.0780 344° North 482 555 26,000 720 Climbing FlightAware ADS-B (EGHO)
09:05AM 50.2601 2.0749 345° North 483 556 26,000 -180 Level FlightAware ADS-B (EGMD / LYX)
09:05AM 50.3288 2.0446 344° North 490 564 25,900  Descending FlightAware ADS-B (EGLF / FAB)
09:06AM 50.3828 2.0047 328° Northwest 476 548 26,000 60 Climbing FlightAware ADS-B (EHRD / RTM)
09:06AM 50.4348 1.9430 320° Northwest 471 542 26,000 960 Level FlightAware ADS-B (EGLF / FAB)
09:07AM 50.4789 1.8833 319° Northwest 474 545 27,100 1,920 Climbing FlightAware ADS-B
09:07AM 50.4840 1.8764 319° Northwest 475 547 27,400 1,800 Climbing FlightAware ADS-B (EGYM / MRH)
09:08AM 50.5597 1.7712 319° Northwest 480 552 28,600 1,920 Climbing FlightAware ADS-B (EGYM / MRH)
09:08AM 50.6274 1.6772 319° Northwest 481 554 29,700 1,860 Climbing FlightAware ADS-B
09:09AM 50.6501 1.6458 318° Northwest 474 545 30,000 1,560 Climbing FlightAware ADS-B (EGHO)
09:09AM 50.6913 1.5888 319° Northwest 484 557 30,800 1,500 Climbing FlightAware ADS-B (EGYM / MRH)
09:10AM 50.7438 1.5162 318° Northwest 480 552 31,400 1,500 Climbing FlightAware ADS-B (EGMD / LYX)
09:10AM 50.7667 1.4843 318° Northwest 481 554 31,800 1,800 Climbing FlightAware ADS-B (EGHH / BOH)
09:10AM 50.7780 1.4687 318° Northwest 674 776 32,000 1,980 Climbing FlightAware ADS-B (KBGR)
09:10AM 50.7817 1.4636 319° Northwest 487 560 32,200 1,260 Climbing FlightAware ADS-B (EGYM / MRH)
09:10AM 50.8327 1.3944 320° Northwest 487 560 32,700 1,200 Climbing FlightAware ADS-B (EGLW)
09:11AM 50.8446 1.3806 323° Northwest 492 566 32,900 1,260 Climbing FlightAware ADS-B (EGYM / MRH)
09:11AM 50.9034 1.3153 325° Northwest 489 563 33,500 1,080 Climbing FlightAware ADS-B (EGHH / BOH)
09:12AM 50.9600 1.2524 325° Northwest 495 570 34,000 840 Climbing FlightAware ADS-B (EGMD / LYX)
09:12AM 50.9671 1.2444 325° Northwest 495 570 34,000  Level FlightAware ADS-B (EGLC / LCY)
09:12AM 51.0282 1.1748 324° Northwest 493 567 34,000  Level FlightAware ADS-B (EGLF / FAB)
09:13AM 51.0743 1.1214 323° Northwest 485 558 34,000  Level FlightAware ADS-B (EGMD / LYX)
09:13AM 51.1209 1.0666 323° Northwest 484 557 34,000  Level FlightAware ADS-B (EGSR)
09:13AM 51.1382 1.0463 323° Northwest 483 556 34,000  Level FlightAware ADS-B (EGHI / SOU)
09:14AM 51.1921 0.9826 323° Northwest 490 564 34,000  Level FlightAware ADS-B (EGLF / FAB)
09:14AM 51.2314 0.9360 323° Northwest 490 564 34,000  Level FlightAware ADS-B (EGLC / LCY)
09:14AM 51.2749 0.8846 323° Northwest 484 557 34,000  Level FlightAware ADS-B (EGWU / NHT)
09:15AM 51.3025 0.8519 323° Northwest 484 557 34,000  Level FlightAware ADS-B (EGLW)
09:15AM 51.3125 0.8401 324° Northwest 490 564 34,000  Level FlightAware ADS-B (EGYM / MRH)
09:15AM 51.3604 0.7831 323° Northwest 491 565 34,000  Level FlightAware ADS-B (EGYM / MRH)
09:16AM 51.4241 0.7074 323° Northwest 492 566 34,000  Level FlightAware ADS-B (EGLC / LCY)
09:16AM 51.4804 0.6403 323° Northwest 486 559 34,000  Level FlightAware ADS-B (EGLW)
09:17AM 51.5394 0.5697 323° Northwest 493 567 34,000  Level FlightAware ADS-B (EGYM / MRH)
09:17AM 51.5955 0.5025 323° Northwest 494 568 34,000  Level FlightAware ADS-B (EGYM / MRH)
09:18AM 51.6508 0.4359 323° Northwest 494 568 34,000  Level FlightAware ADS-B (EGLC / LCY)
09:19AM 51.6888 0.3902 323° Northwest 495 570 34,000  Level FlightAware ADS-B
09:19AM 51.7757 0.2851 323° Northwest 495 570 34,000  Level FlightAware ADS-B (EGLF / FAB)
09:19AM 51.7925 0.2647 322° Northwest 488 562 34,000  Level FlightAware ADS-B (EGNR / CEG)
09:19AM 51.8120 0.2410 322° Northwest 488 562 34,000  Level FlightAware ADS-B (EGNR / CEG)
09:20AM 51.8754 0.1638 323° Northwest 495 570 34,000  Level FlightAware ADS-B (EGYM / MRH)
09:20AM 51.8849 0.1522 322° Northwest 488 562 34,000  Level FlightAware ADS-B (EGHH / BOH)
09:20AM 51.9200 0.1097 325° Northwest 498 573 34,000  Level FlightAware ADS-B (EGLF / FAB)
09:21AM 51.9500 0.0764 327° Northwest 494 568 34,000  Level FlightAware ADS-B (EGHI / SOU)
09:21AM 51.9597 0.0663 327° Northwest 501 577 34,000  Level FlightAware ADS-B (EGNR / CEG)
09:21AM 51.9821 0.0437 328° Northwest 496 571 34,000  Level FlightAware ADS-B (EGCD)
09:21AM 51.9999 0.0266 327° Northwest 501 577 34,000  Level FlightAware ADS-B (EGNR / CEG)
09:21AM 52.0454 -0.0160 331° Northwest 505 581 34,000  Level FlightAware ADS-B (EGYM / MRH)
09:22AM 52.1094 -0.0735 331° Northwest 506 582 34,000  Level FlightAware ADS-B (FALA / HLA)
09:22AM 52.1724 -0.1294 332° Northwest 507 583 34,000  Level FlightAware ADS-B (EGYM / MRH)
09:23AM 52.1857 -0.1412 331° Northwest 500 575 34,000  Level FlightAware ADS-B (EGCN / DSA)
09:23AM 52.1927 -0.1474 332° Northwest 507 583 34,000  Level FlightAware ADS-B (EGHS)
09:23AM 52.2546 -0.2022 331° Northwest 506 582 34,000  Level FlightAware ADS-B (EGYM / MRH)
09:23AM 52.2526 -0.2003 332° Northwest 507 583 34,000  Level FlightAware ADS-B (EGSR)
09:24AM 52.3268 -0.2662 331° Northwest 505 581 34,000  Level FlightAware ADS-B (EGNA)
09:24AM 52.3526 -0.2892 331° Northwest 505 581 34,000  Level FlightAware ADS-B (EGYM / MRH)
09:24AM 52.3836 -0.3168 332° Northwest 504 580 34,000  Level FlightAware ADS-B (EGOQ)
09:25AM 52.4388 -0.3660 331° Northwest 503 579 34,000  Level FlightAware ADS-B (EGLF / FAB)
09:25AM 52.5192 -0.4383 331° Northwest 503 579 34,000  Level FlightAware ADS-B (EGYM / MRH)
09:26AM 52.5686 -0.4828 331° Northwest 503 579 34,000  Level FlightAware ADS-B (EGYM / MRH)
09:26AM 52.6476 -0.5542 331° Northwest 505 581 34,000  Level FlightAware ADS-B (EGCN / DSA)
09:27AM 52.7205 -0.6203 331° Northwest 499 574 34,000  Level FlightAware ADS-B (EGCD)
09:28AM 52.8007 -0.6934 331° Northwest 505 581 34,000  Level FlightAware ADS-B (EGNA)
09:28AM 52.8715 -0.7582 331° Northwest 506 582 34,000  Level FlightAware ADS-B (EGYM / MRH)
09:28AM 52.8859 -0.7716 330° Northwest 505 581 34,000  Level FlightAware ADS-B
09:29AM 52.9498 -0.8304 331° Northwest 506 582 34,000  Level FlightAware ADS-B (EGXY)
09:29AM 52.9957 -0.8727 331° Northwest 506 582 34,000  Level FlightAware ADS-B (EGOQ)
09:30AM 53.0543 -0.9268 331° Northwest 506 582 34,000  Level FlightAware ADS-B (EGCN / DSA)
09:30AM 53.1359 -1.0026 331° Northwest 508 585 34,000  Level FlightAware ADS-B (EGXP / SQZ)
09:31AM 53.1864 -1.0497 330° Northwest 501 577 34,000  Level FlightAware ADS-B (EGCB)
09:31AM 53.1954 -1.0580 331° Northwest 508 585 34,000  Level FlightAware ADS-B
09:31AM 53.2142 -1.0755 330° Northwest 501 577 34,000  Level FlightAware ADS-B (EGCC / MAN)
09:31AM 53.2330 -1.0931 331° Northwest 507 583 34,000  Level FlightAware ADS-B (EGOQ)
09:31AM 53.2624 -1.1207 330° Northwest 507 583 34,000  Level FlightAware ADS-B
09:32AM 53.3032 -1.1590 330° Northwest 505 581 34,000  Level FlightAware ADS-B
09:32AM 53.3330 -1.1870 330° Northwest 498 573 34,000  Level FlightAware ADS-B (EGCD)
09:32AM 53.3434 -1.1968 331° Northwest 505 581 34,000 -180 Level FlightAware ADS-B (EGCW)
09:33AM 53.4199 -1.2688 331° Northwest 504 580 33,900  Descending FlightAware UK
09:33AM 53.4232 -1.2720 331° Northwest 503 579 34,000 480 Climbing FlightAware ADS-B (EGNA)
09:33AM 53.4436 -1.2913 330° Northwest 502 578 34,000  Level FlightAware ADS-B
09:33AM 53.4897 -1.3349 331° Northwest 502 578 34,000  Level FlightAware ADS-B (EGXG)
09:34AM 53.5604 -1.4020 331° Northwest 502 578 34,000  Level FlightAware ADS-B (EGNA)
09:34AM 53.6200 -1.4587 330° Northwest 502 578 34,000  Level FlightAware ADS-B (EGNA)
09:35AM 53.6858 -1.5216 330° Northwest 504 580 34,000  Level FlightAware ADS-B (EGCB)
09:35AM 53.7467 -1.5801 330° Northwest 505 581 34,000  Level FlightAware ADS-B (EGXG)
09:36AM 53.8115 -1.6425 330° Northwest 504 580 34,000  Level FlightAware ADS-B (EGNT / NCL)
09:36AM 53.8736 -1.7026 330° Northwest 506 582 34,000  Level FlightAware ADS-B (EGCC / MAN)
09:37AM 53.9335 -1.7606 330° Northwest 499 574 34,000  Level FlightAware ADS-B (EGCB)
09:37AM 53.9953 -1.8209 330° Northwest 507 583 34,000  Level FlightAware ADS-B (EGXU / HRT)
09:38AM 54.0532 -1.8776 330° Northwest 506 582 34,000  Level FlightAware ADS-B (EGXU / HRT)
09:38AM 54.0908 -1.9145 329° Northwest 506 582 34,000  Level FlightAware ADS-B (EGCN / DSA)
09:38AM 54.1028 -1.9268 328° Northwest 503 579 34,000  Level FlightAware ADS-B (EGXP / SQZ)
09:39AM 54.1604 -1.9922 325° Northwest 498 573 34,000  Level FlightAware ADS-B (EGOQ)
09:39AM 54.1583 -1.9897 325° Northwest 498 573 34,000  Level FlightAware ADS-B (EGNA)
09:39AM 54.1851 -2.0228 324° Northwest 496 571 34,000  Level FlightAware ADS-B (EGXU / HRT)
09:39AM 54.2001 -2.0419 322° Northwest 488 562 34,000  Level FlightAware ADS-B
09:40AM 54.2626 -2.1244 322° Northwest 493 567 34,000  Level FlightAware ADS-B (EGXU / HRT)
09:40AM 54.3134 -2.1931 321° Northwest 492 566 34,000  Level FlightAware ADS-B (EGXU / HRT)
09:41AM 54.3741 -2.2763 321° Northwest 489 563 34,000  Level FlightAware ADS-B (EGOQ)
09:41AM 54.4091 -2.3247 322° Northwest 493 567 34,000  Level FlightAware ADS-B
09:42AM 54.4636 -2.4003 321° Northwest 484 557 34,000  Level FlightAware ADS-B (EGCB)
09:42AM 54.5082 -2.4624 320° Northwest 484 557 34,000  Level FlightAware ADS-B (EGNR / CEG)
09:42AM 54.5326 -2.4965 320° Northwest 486 559 34,000  Level FlightAware ADS-B (EGCB)
09:43AM 54.5633 -2.5393 320° Northwest 491 565 34,000  Level FlightAware ADS-B (EGPG)
09:43AM 54.5844 -2.5710 316° Northwest 485 558 34,000  Level FlightAware ADS-B (EGXU / HRT)
09:43AM 54.5935 -2.5859 316° Northwest 485 558 34,000  Level FlightAware ADS-B
09:43AM 54.6140 -2.6219 311° West 480 552 34,000  Level FlightAware ADS-B
09:43AM 54.6223 -2.6377 311° West 480 552 34,000  Level FlightAware ADS-B
09:43AM 54.6542 -2.7065 306° West 473 544 34,000  Level FlightAware ADS-B
09:44AM 54.6968 -2.8182 302° West 463 533 34,000  Level FlightAware ADS-B (EGNR / CEG)
09:44AM 54.7162 -2.8702 303° West 467 537 34,000  Level FlightAware ADS-B (EGAA / BFS)
09:45AM 54.7317 -2.9121 303° West 466 536 34,000  Level FlightAware ADS-B
09:45AM 54.7400 -2.9347 302° West 462 532 34,000  Level FlightAware ADS-B
09:45AM 54.7488 -2.9585 302° West 461 531 34,000  Level FlightAware ADS-B (EGNR / CEG)
09:45AM 54.7871 -3.0631 302° West 465 535 34,000  Level FlightAware ADS-B (EGPG)
09:46AM 54.8240 -3.1640 302° West 460 529 34,000  Level FlightAware ADS-B (EGCB)
09:46AM 54.8571 -3.2547 301° West 461 531 34,000  Level FlightAware ADS-B
09:47AM 54.8753 -3.3046 301° West 461 531 34,000  Level FlightAware ADS-B (EGNR / CEG)
09:47AM 54.9141 -3.4119 302° West 466 536 34,000  Level FlightAware ADS-B (EGPH / EDI)
09:47AM 54.9267 -3.4467 301° West 462 532 34,000  Level FlightAware ADS-B
09:48AM 54.9397 -3.4827 301° West 462 532 34,000  Level FlightAware ADS-B (EGNR / CEG)
09:48AM 54.9567 -3.5299 301° West 463 533 34,000  Level FlightAware ADS-B (EGNR / CEG)
09:48AM 54.9591 -3.5366 302° West 467 537 34,000  Level FlightAware ADS-B
09:48AM 54.9939 -3.6331 302° West 467 537 34,000  Level FlightAware ADS-B (EGPG)
09:49AM 55.0069 -3.6694 301° West 464 534 34,000  Level FlightAware ADS-B (EGCB)
09:49AM 55.0283 -3.7291 302° West 469 540 34,000  Level FlightAware ADS-B (EGPG)
09:49AM 55.0370 -3.7535 301° West 466 536 34,000  Level FlightAware ADS-B
09:49AM 55.0609 -3.8206 301° West 467 537 34,000  Level FlightAware ADS-B (EGNR / CEG)
09:49AM 55.0686 -3.8421 301° West 467 537 34,000  Level FlightAware ADS-B (EGCB)
09:50AM 55.0895 -3.9008 301° West 468 539 34,000  Level FlightAware ADS-B
09:50AM 55.0994 -3.9289 302° West 473 544 34,000  Level FlightAware ADS-B (EGOQ)
09:50AM 55.1134 -3.9685 301° West 470 541 34,000  Level FlightAware ADS-B (EGCB)
09:51AM 55.1539 -4.0833 302° West 475 547 34,000  Level FlightAware ADS-B
09:51AM 55.1521 -4.0780 302° West 475 547 34,000  Level FlightAware ADS-B
09:51AM 55.1954 -4.2016 302° West 476 548 34,000  Level FlightAware ADS-B
09:52AM 55.2241 -4.2839 300° West 472 543 34,000  Level FlightAware ADS-B
09:52AM 55.2298 -4.3002 301° West 476 548 34,000  Level FlightAware ADS-B (EGPF / GLA)
09:52AM 55.2686 -4.4115 301° West 477 549 34,000  Level FlightAware ADS-B (EGOQ)
09:53AM 55.2950 -4.4874 300° West 472 543 34,000  Level FlightAware ADS-B
09:53AM 55.3112 -4.5342 300° West 472 543 34,000  Level FlightAware ADS-B (EGPF / GLA)
09:53AM 55.3177 -4.5530 300° West 472 543 34,000  Level FlightAware ADS-B
09:53AM 55.3315 -4.5929 300° West 473 544 34,000  Level FlightAware ADS-B (EGAE / LDY)
09:54AM 55.3683 -4.7000 301° West 477 549 34,000  Level FlightAware ADS-B (EGAA / BFS)
09:54AM 55.3801 -4.7341 300° West 473 544 34,000  Level FlightAware ADS-B (EGPF / GLA)
09:55AM 55.4145 -4.8348 301° West 477 549 34,000  Level FlightAware ADS-B
09:55AM 55.4481 -4.9335 301° West 478 550 34,000  Level FlightAware ADS-B (EGPF / GLA)
09:56AM 55.4829 -5.0360 301° West 478 550 34,000  Level FlightAware ADS-B
09:56AM 55.5152 -5.1314 301° West 479 551 34,000  Level FlightAware ADS-B (EGPG)
09:57AM 55.5550 -5.2494 301° West 480 552 34,000  Level FlightAware ADS-B (EGAE / LDY)
09:57AM 55.5886 -5.3497 301° West 481 554 34,000  Level FlightAware ADS-B (EGPG)
09:58AM 55.6289 -5.4707 301° West 483 556 34,000  Level FlightAware ADS-B (EGPF / GLA)
09:58AM 55.6385 -5.4995 301° West 483 556 34,000  Level FlightAware ADS-B (EGOQ)
09:58AM 55.6727 -5.6026 300° West 484 557 34,000  Level FlightAware ADS-B (EGAE / LDY)
09:59AM 55.7045 -5.6992 300° West 484 557 34,000  Level FlightAware ADS-B (EGAE / LDY)
09:59AM 55.7409 -5.8100 300° West 486 559 34,000  Level FlightAware ADS-B (EGAE / LDY)
10:00AM 55.7744 -5.9123 300° West 486 559 34,000  Level FlightAware ADS-B (EGAE / LDY)
10:00AM 55.8092 -6.0187 300° West 488 562 34,000  Level FlightAware ADS-B (EGPF / GLA)
10:01AM 55.8429 -6.1228 300° West 489 563 34,000 240 Level FlightAware ADS-B (EGAE / LDY)
10:01AM 55.8800 -6.2377 300° West 494 568 34,300 780 Climbing FlightAware ADS-B (EGPG)
10:02AM 55.9212 -6.3663 300° West 496 571 34,900 540 Climbing FlightAware ADS-B (EGPF / GLA)
10:03AM 55.9661 -6.5067 300° West 496 571 35,000 60 Climbing FlightAware ADS-B (EGPG)
10:03AM 55.9977 -6.6060 299° West 495 570 35,000  Level FlightAware ADS-B (EGPH / EDI)
10:04AM 56.0361 -6.7275 299° West 494 568 35,000  Level FlightAware ADS-B (EGPF / GLA)
10:04AM 56.0701 -6.8357 299° West 497 572 35,000  Level FlightAware ADS-B (EGAA / BFS)
10:05AM 56.1113 -6.9666 299° West 498 573 35,000  Level FlightAware UK
10:05AM 56.1259 -7.0136 299° West 499 574 35,000  Level FlightAware ADS-B (EGPF / GLA)
10:06AM 56.1698 -7.1551 299° West 501 577 35,000  Level FlightAware ADS-B (EGPF / GLA)
10:06AM 56.2156 -7.3034 299° West 501 577 35,000  Level FlightAware ADS-B (EGPF / GLA)
10:07AM 56.2679 -7.4734 299° West 503 579 35,000  Level FlightAware ADS-B (EGPH / EDI)
10:08AM 56.3036 -7.5908 299° West 508 585 35,000  Level FlightAware ADS-B (EGPF / GLA)
10:08AM 56.3489 -7.7400 299° West 507 583 35,000 -120 Level FlightAware ADS-B (EGPF / GLA)
10:09AM 56.3866 -7.8645 299° West 504 580 34,900  Descending FlightAware UK
10:09AM 56.3944 -7.8906 299° West 503 579 35,000 120 Climbing FlightAware ADS-B (EGPF / GLA)
10:10AM 56.4368 -8.0320 297° West 497 572 35,000  Level FlightAware ADS-B (EGPF / GLA)
10:10AM 56.4798 -8.1768 297° West 498 573 35,000 -120 Level FlightAware ADS-B (EGPF / GLA)
10:11AM 56.5180 -8.3056 297° West 502 578 34,900  Descending FlightAware UK
10:11AM 56.5471 -8.4047 297° West 501 577 35,000  Climbing FlightAware ADS-B (EGPF / GLA)
10:12AM 56.5837 -8.5285 297° West 506 582 34,900  Descending FlightAware UK
10:12AM 56.5902 -8.5517 297° West 503 579 35,000 120 Climbing FlightAware ADS-B (EGPF / GLA)
10:13AM 56.6353 -8.7062 297° West 500 575 35,000  Level FlightAware ADS-B (EGPF / GLA)
10:13AM 56.6770 -8.8506 297° West 498 573 35,000 -120 Level FlightAware ADS-B (EGPF / GLA)
10:14AM 56.7198 -8.9982 297° West 498 573 34,900  Descending FlightAware UK
10:15AM 56.7747 -9.1923 297° West 497 572 35,000 60 Climbing FlightAware ADS-B (EGPF / GLA)
10:16AM 56.8254 -9.3713 297° West 496 571 35,000  Level FlightAware ADS-B (EGPF / GLA)
10:16AM 56.8583 -9.4885 297° West 497 572 35,000  Level FlightAware ADS-B (EGPF / GLA)
11:00AM 59.0000 -20.0000 285° West 489 563 35,000  Level ETMS Enhanced Traffic Management System
11:01AM 57.8362 -20.0132 275° West  Level Estimated
11:02AM 57.8471 -20.2373 275° West  Level Estimated
11:03AM 57.8576 -20.4615 275° West  Level Estimated
11:04AM 57.8676 -20.6859 275° West  Level Estimated
11:05AM 57.8773 -20.9104 275° West  Level Estimated
11:06AM 59.2080 -21.5366 284° West 489 563 35,000  Level FlightAware Transoceanic
11:07AM 59.2409 -21.7945 284° West 489 563 35,000  Level FlightAware Transoceanic
11:08AM 59.2733 -22.0528 284° West 489 563 35,000  Level FlightAware Transoceanic
11:09AM 59.3052 -22.3117 283° West 489 563 35,000  Level FlightAware Transoceanic
11:10AM 59.3366 -22.5710 283° West 489 563 35,000  Level FlightAware Transoceanic
11:11AM 59.3674 -22.8309 283° West 489 563 35,000  Level FlightAware Transoceanic
11:12AM 59.3977 -23.0911 283° West 489 563 35,000  Level FlightAware Transoceanic
11:13AM 59.4276 -23.3519 283° West 489 563 35,000  Level FlightAware Transoceanic
11:14AM 59.4568 -23.6131 282° West 489 563 35,000  Level FlightAware Transoceanic
11:15AM 59.4856 -23.8748 282° West 489 563 35,000  Level FlightAware Transoceanic
11:16AM 59.5139 -24.1369 282° West 489 563 35,000  Level FlightAware Transoceanic
11:17AM 59.5416 -24.3994 282° West 489 563 35,000  Level FlightAware Transoceanic
11:18AM 59.5687 -24.6623 281° West 489 563 35,000  Level FlightAware Transoceanic
11:19AM 59.5954 -24.9257 281° West 489 563 35,000  Level FlightAware Transoceanic
11:20AM 59.6216 -25.1895 281° West 489 563 35,000  Level FlightAware Transoceanic
11:21AM 59.6472 -25.4537 281° West 489 563 35,000  Level FlightAware Transoceanic
11:22AM 59.6722 -25.7183 281° West 489 563 35,000  Level FlightAware Transoceanic
11:23AM 59.6968 -25.9833 280° West 489 563 35,000  Level FlightAware Transoceanic
11:24AM 59.7208 -26.2487 280° West 489 563 35,000  Level FlightAware Transoceanic
11:25AM 59.7442 -26.5145 280° West 489 563 35,000  Level FlightAware Transoceanic
11:26AM 59.7672 -26.7806 280° West 489 563 35,000  Level FlightAware Transoceanic
11:27AM 59.7896 -27.0471 279° West 489 563 35,000  Level FlightAware Transoceanic
11:28AM 59.8114 -27.3139 279° West 489 563 35,000  Level FlightAware Transoceanic
11:29AM 59.8327 -27.5811 279° West 489 563 35,000  Level FlightAware Transoceanic
11:30AM 59.8535 -27.8486 279° West 489 563 35,000  Level FlightAware Transoceanic
11:31AM 59.8737 -28.1165 278° West 489 563 35,000  Level FlightAware Transoceanic
11:32AM 59.8934 -28.3847 278° West 489 563 35,000  Level FlightAware Transoceanic
11:33AM 59.9125 -28.6531 278° West 489 563 35,000  Level FlightAware Transoceanic
11:34AM 59.9311 -28.9219 278° West 489 563 35,000  Level FlightAware Transoceanic
11:35AM 59.9492 -29.1910 278° West 489 563 35,000  Level FlightAware Transoceanic
11:36AM 59.9667 -29.4604 277° West 489 563 35,000  Level FlightAware Transoceanic
11:37AM 59.9836 -29.7301 277° West 489 563 35,000  Level FlightAware Transoceanic
11:38AM 59.9981 -29.9678 277° West  Level FlightAware Approximate
11:39AM 60.0121 -30.2057 277° West  Level FlightAware Approximate
11:40AM 60.0065 -30.1742 274° West  Level FlightAware Approximate
11:41AM 60.0150 -30.4133 274° West  Level FlightAware Approximate
11:42AM 60.0231 -30.6524 274° West  Level FlightAware Approximate
11:43AM 60.0307 -30.8916 274° West  Level FlightAware Approximate
11:44AM 60.0380 -31.1310 274° West  Level FlightAware Approximate
11:45AM 60.0448 -31.3705 273° West  Level FlightAware Approximate
11:46AM 60.0511 -31.6100 273° West  Level FlightAware Approximate
11:47AM 60.0570 -31.8497 273° West  Level FlightAware Approximate
11:48AM 60.0625 -32.0894 273° West  Level FlightAware Approximate
11:49AM 60.0676 -32.3292 273° West  Level FlightAware Approximate
11:50AM 60.0722 -32.5691 272° West  Level FlightAware Approximate
11:51AM 60.0764 -32.8091 272° West  Level FlightAware Approximate
11:52AM 60.0801 -33.0491 272° West  Level FlightAware Approximate
11:53AM 60.0835 -33.2891 272° West  Level FlightAware Approximate
11:54AM 60.0863 -33.5292 271° West  Level FlightAware Approximate
11:55AM 60.0888 -33.7693 271° West  Level FlightAware Approximate
11:56AM 60.0908 -34.0095 271° West  Level FlightAware Approximate
11:57AM 60.0924 -34.2497 271° West  Level FlightAware Approximate
11:58AM 60.0935 -34.4899 271° West  Level FlightAware Approximate
11:59AM 60.0942 -34.7301 270° West  Level FlightAware Approximate
12:00PM 60.0945 -34.9704 270° West  Level FlightAware Approximate
12:01PM 60.0943 -35.2106 270° West  Level FlightAware Approximate
12:02PM 60.0937 -35.4509 270° West  Level FlightAware Approximate
12:03PM 60.0927 -35.6911 270° West  Level FlightAware Approximate
12:03PM 60.0833 -36.4500 268° West 500 575 35,000  Level Gander Center
12:04PM 60.0912 -35.9313 269° West  Level FlightAware Approximate
12:04PM 60.0833 -36.7333 270° West 500 575 35,000  Level Gander Center
12:05PM 60.0893 -36.1715 269° West  Level FlightAware Approximate
12:05PM 60.0833 -37.0167 270° West 500 575 35,000  Level Gander Center
12:06PM 60.0870 -36.4116 269° West  Level FlightAware Approximate
12:06PM 60.0833 -37.2667 270° West 500 575 35,000  Level Gander Center
12:07PM 60.0842 -36.6517 269° West  Level FlightAware Approximate
12:07PM 60.0833 -37.5500 270° West 500 575 35,000  Level Gander Center
12:08PM 60.0810 -36.8918 269° West  Level FlightAware Approximate
12:08PM 60.0833 -37.8333 270° West 500 575 35,000  Level Gander Center
12:09PM 60.0774 -37.1318 268° West  Level FlightAware Approximate
12:09PM 60.0667 -38.0833 262° West 500 575 35,000  Level Gander Center
12:10PM 60.0500 -38.3667 263° West 490 564 35,000  Level Gander Center
12:11PM 60.0500 -38.6500 270° West 500 575 35,000  Level Gander Center
12:12PM 60.0333 -38.9000 263° West 500 575 35,000  Level Gander Center
12:13PM 60.0333 -39.1833 270° West 500 575 35,000  Level Gander Center
12:14PM 60.0333 -39.4667 270° West 500 575 35,000  Level Gander Center
12:15PM 60.0167 -39.7500 263° West 500 575 35,000  Level Gander Center
12:16PM 60.0000 -40.0000 263° West 500 575 35,000  Level Gander Center
12:17PM 59.9500 -40.2667 250° West 500 575 35,000  Level Gander Center
12:18PM 59.9167 -40.5333 256° West 500 575 35,000  Level Gander Center
12:19PM 59.8667 -40.7667 247° West 500 575 35,000  Level Gander Center
12:20PM 59.8333 -41.0333 256° West 500 575 35,000  Level Gander Center
12:21PM 59.7833 -41.3000 250° West 490 564 35,000  Level Gander Center
12:22PM 59.7500 -41.5667 256° West 490 564 35,000  Level Gander Center
12:23PM 59.7000 -41.8000 247° West 490 564 35,000  Level Gander Center
12:24PM 59.6667 -42.0500 255° West 490 564 35,000  Level Gander Center
12:25PM 59.6167 -42.3167 250° West 490 564 35,000  Level Gander Center
12:26PM 59.5667 -42.5833 250° West 490 564 35,000  Level Gander Center
12:27PM 59.5333 -42.8000 253° West 490 564 35,000  Level Gander Center
12:28PM 59.4833 -43.0333 247° West 490 564 35,000  Level Gander Center
12:29PM 59.4500 -43.2833 255° West 490 564 35,000  Level Gander Center
12:30PM 59.4000 -43.5500 250° West 490 564 35,000  Level Gander Center
12:31PM 59.3667 -43.8000 255° West 490 564 35,000  Level Gander Center
12:32PM 59.3000 -44.0333 241° Southwest 490 564 35,000  Level Gander Center
12:33PM 59.2500 -44.2833 249° West 480 552 35,000  Level Gander Center
12:34PM 59.2167 -44.5333 255° West 480 552 35,000  Level Gander Center
12:35PM 59.1667 -44.7667 247° West 480 552 35,000  Level Gander Center
12:36PM 59.1333 -45.0167 256° West 480 552 35,000  Level Gander Center
12:37PM 59.0667 -45.2333 239° Southwest 480 552 35,000  Level Gander Center
12:38PM 59.0333 -45.4833 256° West 480 552 35,000  Level Gander Center
12:39PM 58.9667 -45.7333 243° Southwest 480 552 35,000  Level Gander Center
12:40PM 58.9167 -45.9667 248° West 480 552 35,000  Level Gander Center
12:41PM 58.8833 -46.2167 256° West 490 564 35,000  Level Gander Center
12:42PM 58.8167 -46.4667 243° Southwest 490 564 35,000  Level Gander Center
12:43PM 58.7833 -46.6833 254° West 490 564 35,000  Level Gander Center
12:44PM 58.7167 -46.9333 243° Southwest 490 564 35,000  Level Gander Center
12:45PM 58.6667 -47.1833 249° West 490 564 35,000  Level Gander Center
12:46PM 58.6167 -47.4333 249° West 490 564 35,000  Level Gander Center
12:47PM 58.5500 -47.6500 240° Southwest 490 564 35,000  Level Gander Center
12:48PM 58.5000 -47.9000 249° West 490 564 35,000  Level Gander Center
12:49PM 58.4500 -48.1333 248° West 490 564 35,000  Level Gander Center
12:50PM 58.4000 -48.3833 249° West 490 564 35,000  Level Gander Center
12:51PM 58.3333 -48.6000 240° Southwest 490 564 35,000  Level Gander Center
12:52PM 58.2833 -48.8333 248° West 490 564 35,000  Level Gander Center
12:53PM 58.2333 -49.0833 249° West 490 564 35,000  Level Gander Center
12:54PM 58.1667 -49.3333 243° Southwest 490 564 35,000  Level Gander Center
12:55PM 58.1167 -49.5333 245° Southwest 500 575 35,000  Level Gander Center
12:56PM 58.0500 -49.7833 243° Southwest 500 575 35,000  Level Gander Center
12:57PM 57.9833 -50.0167 242° Southwest 500 575 35,000  Level Gander Center
12:58PM 57.9667 -50.1500 257° West 500 575 35,000  Level Gander Center
12:59PM 57.9000 -50.4000 243° Southwest 500 575 35,000  Level Gander Center
01:00PM 57.8500 -50.6333 248° West 500 575 35,000  Level Gander Center
01:01PM 57.8000 -50.8667 248° West 510 587 35,000  Level Gander Center
01:02PM 57.7333 -51.1000 242° Southwest 510 587 35,000  Level Gander Center
01:03PM 57.6833 -51.3333 248° West 510 587 35,000  Level Gander Center
01:04PM 57.6167 -51.5833 244° Southwest 510 587 35,000  Level Gander Center
01:12PM 57.0333 -53.7000 257° West 540 621 35,000  Level Gander Center
01:13PM 56.9833 -53.9167 247° West 530 610 35,000  Level Gander Center
01:14PM 57.4264 -53.3685 259° West  Level FlightAware Approximate
01:14PM 56.9167 -54.1833 245° Southwest 530 610 35,000  Level Gander Center
01:15PM 57.4014 -53.5858 258° West  Level FlightAware Approximate
01:15PM 56.8333 -54.4167 237° Southwest 530 610 35,000  Level Gander Center
01:16PM 57.3760 -53.8028 258° West  Level FlightAware Approximate
01:16PM 56.7667 -54.6333 241° Southwest 530 610 35,000  Level Gander Center
01:17PM 57.3502 -54.0194 258° West  Level FlightAware Approximate
01:17PM 56.7000 -54.9000 246° West 530 610 35,000  Level Gander Center
01:18PM 57.3241 -54.2358 257° West  Level FlightAware Approximate
01:18PM 56.6167 -55.1167 235° Southwest 530 610 35,000  Level Gander Center
01:19PM 56.5500 -55.3500 243° Southwest 530 610 35,000  Level Gander Center
01:20PM 56.5000 -55.5667 247° West 520 598 35,000  Level Gander Center
01:21PM 56.4333 -55.7500 237° Southwest 520 598 35,000  Level Gander Center
01:22PM 56.3667 -56.0000 244° Southwest 540 621 35,000  Level Gander Center
01:23PM 56.2667 -56.2833 238° Southwest 530 610 35,000  Level Gander Center
01:24PM 56.2000 -56.5167 243° Southwest 540 621 35,000  Level Gander Center
01:25PM 56.1333 -56.7333 241° Southwest 530 610 35,000  Level Gander Center
01:26PM 56.0667 -56.9500 241° Southwest 530 610 35,000  Level Gander Center
01:27PM 55.9833 -57.1667 236° Southwest 530 610 35,000  Level Gander Center
01:28PM 55.9167 -57.3833 241° Southwest 530 610 35,000  Level Gander Center
01:29PM 55.8333 -57.6167 238° Southwest 520 598 35,000  Level Gander Center
01:30PM 55.7500 -57.8333 236° Southwest 530 610 35,000  Level Gander Center
01:31PM 55.7000 -58.0500 248° West 530 610 35,000  Level Gander Center
01:32PM 55.6167 -58.3000 240° Southwest 530 610 35,000  Level Gander Center
01:33PM 55.5333 -58.5000 234° Southwest 530 610 35,000  Level Gander Center
01:34PM 55.4500 -58.7167 236° Southwest 530 610 35,000  Level Gander Center
01:35PM 55.3833 -58.9333 242° Southwest 520 598 35,000  Level Gander Center
01:36PM 55.3000 -59.1667 238° Southwest 520 598 35,000  Level Gander Center
01:37PM 55.2333 -59.3833 242° Southwest 520 598 35,000  Level Gander Center
01:38PM 55.1500 -59.6167 238° Southwest 530 610 35,000  Level Gander Center
01:39PM 55.0833 -59.8167 240° Southwest 520 598 35,000  Level Gander Center
01:40PM 55.0000 -60.0333 236° Southwest 520 598 35,000  Level Gander Center
01:41PM 54.9167 -60.2333 234° Southwest 520 598 35,000  Level Gander Center
01:42PM 54.8500 -60.4333 240° Southwest 520 598 35,000  Level Gander Center
01:43PM 54.7500 -60.6667 233° Southwest 520 598 35,000  Level Gander Center
01:44PM 54.6833 -60.8833 242° Southwest 520 598 35,000  Level Gander Center
01:45PM 54.6000 -61.0833 234° Southwest 520 598 35,000  Level Gander Center
01:46PM 54.5167 -61.2833 234° Southwest 520 598 35,000  Level Gander Center
01:47PM 54.4333 -61.5167 239° Southwest 520 598 35,000  Level Gander Center
01:48PM 54.3500 -61.7167 234° Southwest 520 598 35,000  Level Gander Center
01:49PM 54.2667 -61.9333 237° Southwest 520 598 35,000  Level Gander Center
01:50PM 54.1833 -62.1667 239° Southwest 520 598 35,000  Level Gander Center
01:51PM 54.1000 -62.3667 235° Southwest 520 598 35,000  Level Gander Center
01:52PM 54.0000 -62.5667 230° Southwest 520 598 35,000  Level Gander Center
01:53PM 53.9333 -62.7667 241° Southwest 520 598 35,000  Level Gander Center
01:54PM 53.8500 -62.9833 237° Southwest 520 598 35,000  Level Gander Center
01:55PM 53.7667 -63.1833 235° Southwest 520 598 35,000  Level Gander Center
01:56PM 53.6833 -63.3667 233° Southwest 530 610 35,000  Level Gander Center
01:57PM 53.6000 -63.5667 235° Southwest 530 610 35,000  Level Gander Center
01:58PM 53.5000 -63.7500 228° Southwest 520 598 35,000  Level Gander Center
01:59PM 53.4167 -63.9833 239° Southwest 520 598 35,000 120 Level Gander Center
02:00PM 53.3500 -64.1667 239° Southwest 530 610 35,300 480 Climbing Gander Center
02:01PM 53.2500 -64.3833 232° Southwest 530 610 36,000 300 Climbing Gander Center
02:02PM 53.1667 -64.5667 233° Southwest 530 610 36,000  Level Gander Center
02:03PM 53.0833 -64.7667 235° Southwest 520 598 36,000  Level Gander Center
02:04PM 52.9833 -64.9500 228° Southwest 520 598 36,000  Level Gander Center
02:05PM 52.9000 -65.1333 233° Southwest 520 598 36,000  Level Gander Center
02:06PM 52.8167 -65.3500 238° Southwest 520 598 36,000  Level Gander Center
02:07PM 52.7333 -65.5333 233° Southwest 520 598 36,000  Level Gander Center
02:08PM 52.6333 -65.7167 228° Southwest 530 610 36,000  Level Gander Center
02:09PM 52.5500 -65.9000 233° Southwest 530 610 36,000  Level Gander Center
02:10PM 52.4667 -66.1167 238° Southwest 520 598 36,000  Level Gander Center
02:11PM 52.3667 -66.3000 228° Southwest 530 610 36,000  Level Gander Center
02:12PM 52.2833 -66.5000 236° Southwest 530 610 36,000  Level Gander Center
02:13PM 52.1833 -66.6833 228° Southwest 530 610 36,000  Level Gander Center
02:14PM 52.1000 -66.8667 234° Southwest 530 610 36,000  Level Gander Center
02:15PM 52.0000 -67.0500 229° Southwest 530 610 36,000  Level Gander Center
02:16PM 51.9333 -67.2167 237° Southwest 530 610 36,000  Level Gander Center
02:17PM 51.8333 -67.4333 233° Southwest 530 610 36,000  Level Gander Center
02:18PM 51.7333 -67.6000 226° Southwest 530 610 36,000  Level Gander Center
02:19PM 51.6500 -67.8167 238° Southwest 530 610 36,000  Level Gander Center
02:20PM 51.5500 -67.9833 226° Southwest 530 610 36,000  Level Gander Center
02:21PM 51.4500 -68.1833 231° Southwest 530 610 36,000  Level Gander Center
02:22PM 51.3667 -68.3667 234° Southwest 530 610 36,000  Level Gander Center
02:23PM 51.2667 -68.5333 226° Southwest 530 610 36,000  Level Gander Center
02:25PM 51.1333 -68.7667 228° Southwest 530 610 36,000  Level Montreal Center
02:26PM 51.0333 -68.9500 229° Southwest 530 610 36,000  Level Montreal Center
02:27PM 50.9333 -69.1167 226° Southwest 530 610 36,000  Level Montreal Center
02:28PM 50.8333 -69.3000 229° Southwest 530 610 36,000  Level Montreal Center
02:29PM 50.7500 -69.5000 237° Southwest 540 621 36,000  Level Montreal Center
02:30PM 50.6500 -69.6667 227° Southwest 540 621 36,000  Level Montreal Center
02:31PM 50.5500 -69.8667 232° Southwest 530 610 36,000  Level Montreal Center
02:32PM 50.4667 -70.0333 232° Southwest 530 610 36,000  Level Montreal Center
02:32PM 50.4000 -70.1667 232° Southwest 540 621 36,000  Level Gander Center
02:33PM 50.3167 -70.3333 232° Southwest 540 621 36,000  Level Gander Center
02:34PM 50.2000 -70.5167 225° Southwest 530 610 36,000  Level Gander Center
02:35PM 50.1167 -70.6833 232° Southwest 540 621 36,000  Level Gander Center
02:36PM 50.0000 -70.8667 225° Southwest 530 610 36,000  Level Gander Center
02:37PM 49.9167 -71.0333 232° Southwest 530 610 36,000  Level Gander Center
02:38PM 49.8000 -71.2167 225° Southwest 530 610 36,000  Level Gander Center
02:39PM 49.7167 -71.3833 232° Southwest 530 610 36,000  Level Gander Center
02:40PM 49.6167 -71.5667 230° Southwest 530 610 36,000  Level Gander Center
02:41PM 49.5167 -71.7333 227° Southwest 530 610 36,000  Level Gander Center
02:42PM 49.4333 -71.9000 232° Southwest 540 621 36,000  Level Gander Center
02:43PM 49.3167 -72.0833 226° Southwest 540 621 36,000  Level Gander Center
02:45PM 49.1667 -72.2667 219° Southwest 530 610 36,000  Level Montreal Center
02:46PM 49.0833 -72.4500 235° Southwest 530 610 36,000  Level Montreal Center
02:47PM 48.9667 -72.6167 223° Southwest 540 621 36,000  Level Montreal Center
02:48PM 48.8667 -72.7667 225° Southwest 530 610 36,000  Level Montreal Center
02:49PM 48.7667 -72.9333 228° Southwest 540 621 36,000  Level Montreal Center
02:50PM 48.6833 -73.1167 236° Southwest 530 610 36,000  Level Montreal Center
02:51PM 48.5667 -73.2667 220° Southwest 530 610 36,000  Level Montreal Center
02:52PM 48.4667 -73.4333 228° Southwest 530 610 36,000  Level Montreal Center
02:53PM 48.3667 -73.5833 225° Southwest 530 610 36,000  Level Montreal Center
02:54PM 48.2500 -73.7667 226° Southwest 530 610 36,000  Level Montreal Center
02:55PM 48.1500 -73.9333 228° Southwest 520 598 36,000  Level Montreal Center
03:00PM 47.6010 -74.8140 226° Southwest 526 605 36,000  Level FlightAware ADS-B
03:01PM 47.5738 -74.8556 226° Southwest 525 604 36,000  Level FlightAware ADS-B (CYOW)
03:01PM 47.5230 -74.9330 226° Southwest 526 605 36,000  Level FlightAware ADS-B
03:02PM 47.4540 -75.0360 226° Southwest 525 604 36,000  Level FlightAware ADS-B
03:03PM 47.3955 -75.1244 226° Southwest 524 603 36,000  Level FlightAware ADS-B (CYOW)
03:03PM 47.3770 -75.1520 226° Southwest 525 604 36,000  Level FlightAware ADS-B
03:03PM 47.3240 -75.2320 226° Southwest 525 604 36,000  Level FlightAware ADS-B
03:03PM 47.3073 -75.2564 226° Southwest 523 602 36,000  Level FlightAware ADS-B (CYOW)
03:04PM 47.2720 -75.3100 226° Southwest 524 603 36,000  Level FlightAware ADS-B
03:04PM 47.2210 -75.3850 226° Southwest 524 603 36,000  Level FlightAware ADS-B
03:04PM 47.2078 -75.4046 225° Southwest 523 602 36,000  Level FlightAware ADS-B (CYOW)
03:05PM 47.1600 -75.4760 226° Southwest 524 603 36,000  Level FlightAware ADS-B
03:05PM 47.1560 -75.4814 225° Southwest 523 602 36,000  Level FlightAware ADS-B (CYOW)
03:05PM 47.1090 -75.5510 226° Southwest 523 602 36,000  Level FlightAware ADS-B
03:06PM 47.0891 -75.5802 225° Southwest 523 602 36,000  Level FlightAware ADS-B (CYOW)
03:06PM 47.0580 -75.6260 226° Southwest 523 602 36,000  Level FlightAware ADS-B
03:06PM 47.0326 -75.6633 225° Southwest 522 601 36,000  Level FlightAware ADS-B (CYOW)
03:06PM 46.9980 -75.7150 226° Southwest 522 601 36,000  Level FlightAware ADS-B
03:07PM 46.9811 -75.7389 225° Southwest 521 600 36,000  Level FlightAware ADS-B (CYOW)
03:07PM 46.9360 -75.8050 226° Southwest 522 601 36,000  Level FlightAware ADS-B
03:08PM 46.8740 -75.8960 225° Southwest 522 601 36,000  Level FlightAware ADS-B
03:08PM 46.8659 -75.9072 225° Southwest 520 598 36,000  Level FlightAware ADS-B (CYOW)
03:08PM 46.8130 -75.9840 225° Southwest 520 598 36,000  Level FlightAware ADS-B
03:09PM 46.7620 -76.0590 225° Southwest 520 598 36,000  Level FlightAware ADS-B
03:09PM 46.7378 -76.0933 225° Southwest 519 597 36,000  Level FlightAware ADS-B (CYOW)
03:09PM 46.7120 -76.1310 225° Southwest 519 597 36,000  Level FlightAware ADS-B
03:10PM 46.6777 -76.1798 225° Southwest 518 596 36,000  Level FlightAware ADS-B (CYOW)
03:10PM 46.6500 -76.2200 225° Southwest 519 597 36,000  Level FlightAware ADS-B
03:10PM 46.6099 -76.2773 225° Southwest 518 596 36,000  Level FlightAware ADS-B (CYOW)
03:10PM 46.5890 -76.3080 225° Southwest 518 596 36,000  Level FlightAware ADS-B
03:11PM 46.5613 -76.3469 225° Southwest 517 595 36,000  Level FlightAware ADS-B (CYOW)
03:11PM 46.5150 -76.4130 225° Southwest 517 595 36,000  Level FlightAware ADS-B
03:11PM 46.5046 -76.4280 225° Southwest 516 594 36,000  Level FlightAware ADS-B (CYOW)
03:12PM 46.4460 -76.5110 225° Southwest 516 594 36,000  Level FlightAware ADS-B
03:12PM 46.4357 -76.5261 224° Southwest 516 594 36,000  Level FlightAware ADS-B (CYOW)
03:12PM 46.3950 -76.5840 225° Southwest 515 593 36,000  Level FlightAware ADS-B
03:12PM 46.3833 -76.6005 224° Southwest 514 592 36,000  Level FlightAware ADS-B (CYOW)
03:13PM 46.3440 -76.6560 225° Southwest 515 593 36,000  Level FlightAware ADS-B
03:13PM 46.3420 -76.6588 225° Southwest 514 592 36,000  Level FlightAware ADS-B (CYYZ)
03:13PM 46.3010 -76.7170 224° Southwest 513 590 36,000  Level FlightAware ADS-B (CYOW)
03:13PM 46.2970 -76.7230 225° Southwest 513 590 36,000  Level FlightAware ADS-B
03:13PM 46.2917 -76.7301 225° Southwest 512 589 36,000  Level FlightAware ADS-B (CYYZ)
03:14PM 46.2616 -76.7725 224° Southwest 511 588 36,000  Level FlightAware ADS-B (CYOW)
03:14PM 46.2513 -76.7871 225° Southwest 511 588 36,000  Level FlightAware ADS-B (CYYZ)
03:14PM 46.1921 -76.8704 224° Southwest 510 587 36,000  Level FlightAware ADS-B (CYOW)
03:14PM 46.2110 -76.8439 225° Southwest 509 586 36,000  Level FlightAware ADS-B (CYYZ)
03:15PM 46.1417 -76.9411 225° Southwest 509 586 36,000  Level FlightAware ADS-B (CYYZ)
03:15PM 46.1117 -76.9830 225° Southwest 507 583 36,000  Level FlightAware ADS-B (CYYZ)
03:16PM 46.0597 -77.0554 224° Southwest 506 582 36,000  Level FlightAware ADS-B (CYOW)
03:16PM 46.0468 -77.0734 225° Southwest 505 581 36,000  Level FlightAware ADS-B (CYYZ)
03:16PM 46.0101 -77.1244 224° Southwest 505 581 36,000  Level FlightAware ADS-B (CYOW)
03:17PM 45.9664 -77.1850 224° Southwest 502 578 36,000  Level FlightAware ADS-B (CYYZ)
03:17PM 45.9387 -77.2234 224° Southwest 502 578 36,000  Level FlightAware ADS-B (CYOW)
03:17PM 45.9172 -77.2532 224° Southwest 501 577 36,000  Level FlightAware ADS-B (CYYZ)
03:17PM 45.8862 -77.2959 224° Southwest 501 577 36,000  Level FlightAware ADS-B (CYOW)
03:18PM 45.8649 -77.3253 224° Southwest 500 575 36,000  Level FlightAware ADS-B (CYYZ)
03:18PM 45.8236 -77.3823 224° Southwest 499 574 36,000  Level FlightAware ADS-B (CYOW)
03:18PM 45.8149 -77.3942 224° Southwest 498 573 36,000  Level FlightAware ADS-B (CYYZ)
03:19PM 45.7689 -77.4575 224° Southwest 497 572 36,000  Level FlightAware ADS-B (CYOW)
03:19PM 45.7672 -77.4598 224° Southwest 496 571 36,000  Level FlightAware ADS-B (CYYZ)
03:19PM 45.7161 -77.5299 224° Southwest 494 568 36,000  Level FlightAware ADS-B (CYYZ)
03:19PM 45.7004 -77.5513 224° Southwest 493 567 36,000  Level FlightAware ADS-B (CYOW)
03:20PM 45.6639 -77.5983 221° Southwest 492 566 36,000  Level FlightAware ADS-B (CYYZ)
03:20PM 45.6519 -77.6130 220° Southwest 492 566 36,000  Level FlightAware ADS-B (CYOW)
03:20PM 45.5722 -77.7008 216° Southwest 490 564 36,000  Level FlightAware ADS-B (CYOW)
03:21PM 45.5577 -77.7157 216° Southwest 489 563 36,000  Level FlightAware ADS-B (CYYZ)
03:21PM 45.5162 -77.7586 216° Southwest 489 563 36,000  Level FlightAware ADS-B (CYOW)
03:21PM 45.5001 -77.7752 217° Southwest 488 562 36,000  Level FlightAware ADS-B (CYYZ)
03:22PM 45.4454 -77.8318 217° Southwest 488 562 36,000  Level FlightAware ADS-B (CYYZ)
03:22PM 45.4409 -77.8365 216° Southwest 488 562 36,000  Level FlightAware ADS-B (CYOW)
03:22PM 45.3892 -77.8903 217° Southwest 487 560 36,000  Level FlightAware ADS-B (CYYZ)
03:22PM 45.3857 -77.8939 216° Southwest 488 562 36,000  Level FlightAware ADS-B (CYOW)
03:23PM 45.3344 -77.9475 217° Southwest 487 560 36,000  Level FlightAware ADS-B (CYYZ)
03:23PM 45.2797 -78.0048 217° Southwest 487 560 36,000  Level FlightAware ADS-B (CYYZ)
03:24PM 45.2298 -78.0571 217° Southwest 487 560 36,000  Level FlightAware ADS-B (CYYZ)
03:24PM 45.1712 -78.1182 217° Southwest 486 559 36,000  Level FlightAware ADS-B (CYYZ)
03:24PM 45.1512 -78.1389 216° Southwest 486 559 36,000 -420 Level FlightAware ADS-B (CYOW)
03:25PM 45.1155 -78.1760 217° Southwest 480 552 35,800 -1,020 Descending FlightAware ADS-B (CYYZ)
03:25PM 45.0945 -78.1977 216° Southwest 474 545 35,500 -2,040 Descending FlightAware ADS-B (CYOW)
03:25PM 45.0631 -78.2302 217° Southwest 470 541 34,800 -2,340 Descending FlightAware ADS-B (CYYZ)
03:26PM 45.0100 -78.2850 217° Southwest 466 536 33,600 -2,400 Descending FlightAware ADS-B (CYYZ)
03:26PM 44.9573 -78.3391 217° Southwest 461 531 32,400 -2,340 Descending FlightAware ADS-B (CYYZ)
03:27PM 44.9055 -78.3921 217° Southwest 458 527 31,300 -2,100 Descending FlightAware ADS-B (CYYZ)
03:27PM 44.8554 -78.4436 216° Southwest 453 521 30,300 -2,100 Descending FlightAware ADS-B (CYYZ)
03:28PM 44.8035 -78.4964 216° Southwest 447 514 29,200 -2,100 Descending FlightAware ADS-B (CYYZ)
03:28PM 44.7526 -78.5482 216° Southwest 441 507 28,200 -2,040 Descending FlightAware ADS-B (CYYZ)
03:29PM 44.7049 -78.5967 216° Southwest 435 501 27,200 -2,100 Descending FlightAware ADS-B (CYYZ)
03:29PM 44.6581 -78.6441 216° Southwest 431 496 26,100 -1,980 Descending FlightAware ADS-B (CYYZ)
03:30PM 44.6063 -78.6963 216° Southwest 425 489 25,200 -1,920 Descending FlightAware ADS-B (CYYZ)
03:30PM 44.5598 -78.7434 216° Southwest 419 482 24,200 -1,920 Descending FlightAware ADS-B (CYYZ)
03:31PM 44.4889 -78.8148 216° Southwest 411 473 22,800 -1,860 Descending FlightAware ADS-B (CYYZ)
03:31PM 44.4413 -78.8627 216° Southwest 406 467 21,900 -1,800 Descending FlightAware ADS-B (CYYZ)
03:32PM 44.3952 -78.9089 216° Southwest 400 460 21,000 -1,800 Descending FlightAware ADS-B (CYYZ)
03:32PM 44.3515 -78.9527 216° Southwest 394 453 20,100 -1,800 Descending FlightAware ADS-B (CYYZ)
03:33PM 44.3065 -78.9975 216° Southwest 391 450 19,200 -1,920 Descending FlightAware ADS-B (CYYZ)
03:33PM 44.3219 -78.9822 216° Southwest 391 450 19,100 -2,220 Descending FlightAware ADS-B (CYKF)
03:33PM 44.2609 -79.0430 216° Southwest 390 449 18,100 -2,100 Descending FlightAware ADS-B (CYYZ)
03:34PM 44.2171 -79.0869 217° Southwest 390 449 17,100 -1,980 Descending FlightAware ADS-B (CYYZ)
03:34PM 44.1733 -79.1321 217° Southwest 386 444 16,100 -1,680 Descending FlightAware ADS-B (CYYZ)
03:35PM 44.1086 -79.1984 217° Southwest 372 428 15,000 -1,320 Descending FlightAware ADS-B (CYYZ)
03:36PM 44.0673 -79.2404 217° Southwest 354 407 14,500 -1,320 Descending FlightAware ADS-B (CYYZ)
03:36PM 44.0275 -79.2808 216° Southwest 352 405 13,700 -1,620 Descending FlightAware ADS-B (CYYZ)
03:37PM 43.9881 -79.3206 217° Southwest 346 398 12,900 -1,860 Descending FlightAware ADS-B (CYYZ)
03:37PM 43.9846 -79.3242 216° Southwest 336 387 12,700 -1,200 Descending FlightAware ADS-B (CYKF)
03:37PM 43.9505 -79.3585 216° Southwest 327 376 12,300 -1,320 Descending FlightAware ADS-B (CYYZ)
03:38PM 43.9144 -79.3951 217° Southwest 315 362 11,500 -1,620 Descending FlightAware ADS-B (CYYZ)
03:38PM 43.8790 -79.4308 217° Southwest 301 346 10,700 -1,380 Descending FlightAware ADS-B (CYYZ)
03:39PM 43.8423 -79.4941 240° Southwest 272 313 9,800 -1,380 Descending FlightAware ADS-B (CYKF)
03:40PM 43.8233 -79.5408 242° Southwest 278 320 9,000 -1,980 Descending FlightAware ADS-B (CYYZ)
03:40PM 43.8112 -79.5696 240° Southwest 283 326 8,200 -1,800 Descending FlightAware ADS-B (CYKF)
03:40PM 43.8035 -79.5875 241° Southwest 282 325 8,100 -600 Descending FlightAware ADS-B (CYYZ)
03:41PM 43.7853 -79.6338 242° Southwest 270 311 7,800 -720 Descending FlightAware ADS-B (CYYZ)
03:41PM 43.7761 -79.6570 242° Southwest 269 310 7,600 -1,080 Descending FlightAware ADS-B (CYYZ)
03:41PM 43.7696 -79.6730 241° Southwest 271 312 7,300 -1,200 Descending FlightAware ADS-B (CYKF)
03:41PM 43.7576 -79.7023 241° Southwest 266 306 7,000 -1,080 Descending FlightAware ADS-B (CYYZ)
03:42PM 43.7354 -79.7424 226° Southwest 263 303 6,500 -1,200 Descending FlightAware ADS-B (CYYZ)
03:42PM 43.7300 -79.7500 226° Southwest 263 303 6,200 -1,200 Descending FlightAware ADS-B (CYKF)
03:42PM 43.7102 -79.7785 227° Southwest 255 293 5,900 -1,020 Descending FlightAware ADS-B (CYYZ)
03:43PM 43.6860 -79.8135 227° Southwest 242 278 5,400 -1,200 Descending FlightAware ADS-B (CYYZ)
03:43PM 43.6749 -79.8297 227° Southwest 240 276 5,000 -1,380 Descending FlightAware ADS-B (CYYZ)
03:44PM 43.6516 -79.8626 226° Southwest 228 262 4,400 -1,080 Descending FlightAware ADS-B (CYYZ)
03:44PM 43.6406 -79.8778 225° Southwest 221 254 4,200 -1,320 Descending FlightAware ADS-B (CYYZ)
03:44PM 43.6390 -79.8798 219° Southwest 221 254 3,900 -1,560 Descending FlightAware ADS-B (CYKF)
03:44PM 43.6120 -79.8896 166° South 217 250 3,400 -1,320 Descending FlightAware ADS-B (CYYZ)
03:44PM 43.6074 -79.8873 155° Southeast 215 247 3,300 -1,200 Descending FlightAware ADS-B (CYYZ)
03:44PM 43.6030 -79.8839 147° Southeast 213 245 3,200 -960 Descending FlightAware ADS-B (CYYZ)
03:45PM 43.5879 -79.8677 140° Southeast 205 236 2,900 -720 Descending FlightAware ADS-B (CYYZ)
03:45PM 43.5775 -79.8544 129° Southeast 208 239 2,800 -180 Descending FlightAware ADS-B (CYYZ)
03:46PM 43.5745 -79.8160 67° East 202 232 2,800 -180 Level FlightAware ADS-B (CYYZ)
03:46PM 43.5802 -79.8005 57° Northeast 191 220 2,700 -540 Descending FlightAware ADS-B (CYYZ)
03:46PM 43.5990 -79.7729 43° Northeast 191 220 2,400 -840 Descending FlightAware ADS-B (CYYZ)
03:47PM 43.6177 -79.7469 47° Northeast 188 216 1,900 -900 Descending FlightAware ADS-B (CYYZ)
03:47PM 43.6349 -79.7213 46° Northeast 169 194 1,500 -840 Descending FlightAware ADS-B (CYYZ)
03:48PM 43.6422 -79.7106 47° Northeast 159 183 1,300 -780 Descending FlightAware ADS-B (CYYZ)
03:48PM 43.6506 -79.6984 46° Northeast 161 185 1,100 -780 Descending FlightAware ADS-B (CYYZ)
03:48PM 43.6662 -79.6758 46° Northeast 163 188 700 -840 Descending FlightAware ADS-B (CYYZ)
03:49PM 43.6726 -79.6663 46° Northeast 157 181 500 -960 Descending FlightAware ADS-B (CYYZ)